createdAt,value
2023-03-22T00:02:26.599Z,3.15
2023-03-22T00:04:54.804Z,4.47
2023-03-22T00:07:22.967Z,6.05
2023-03-22T00:09:51.347Z,6.13
2023-03-22T00:12:19.624Z,4.35
2023-03-22T00:14:49.080Z,4.25
2023-03-22T00:17:17.456Z,3.55
2023-03-22T00:19:45.510Z,3.50
2023-03-22T00:22:15.024Z,3.78
2023-03-22T00:24:43.024Z,4.40
2023-03-22T00:27:11.782Z,3.95
2023-03-22T00:29:39.676Z,3.90
2023-03-22T00:32:08.025Z,4.38
2023-03-22T00:34:36.531Z,5.18
2023-03-22T00:37:04.855Z,5.30
2023-03-22T00:39:32.971Z,3.72
2023-03-22T00:42:01.520Z,3.65
2023-03-22T00:44:29.473Z,3.85
2023-03-22T00:46:57.967Z,4.95
2023-03-22T00:49:26.146Z,3.90
2023-03-22T00:51:55.223Z,4.47
2023-03-22T00:54:23.428Z,3.03
2023-03-22T00:56:51.692Z,4.60
2023-03-22T00:59:19.749Z,3.88
2023-03-22T01:01:48.306Z,3.53
2023-03-22T01:04:18.403Z,2.78
2023-03-22T01:06:47.527Z,3.88
2023-03-22T01:09:15.770Z,3.95
2023-03-22T01:11:45.683Z,4.25
2023-03-22T01:14:14.244Z,3.13
2023-03-22T01:16:42.696Z,4.65
2023-03-22T01:19:11.070Z,3.20
2023-03-22T01:21:40.176Z,4.85
2023-03-22T01:24:08.406Z,3.75
2023-03-22T01:26:36.783Z,5.03
2023-03-22T01:29:05.606Z,3.90
2023-03-22T01:31:33.794Z,4.15
2023-03-22T01:34:20.230Z,3.35
2023-03-22T01:36:50.513Z,5.43
2023-03-22T01:39:19.160Z,4.85
2023-03-22T01:41:50.269Z,4.05
2023-03-22T01:44:21.975Z,5.82
2023-03-22T01:46:52.770Z,6.15
2023-03-22T01:49:29.902Z,4.25
2023-03-22T01:52:04.063Z,5.43
2023-03-22T01:54:57.271Z,4.32
2023-03-22T01:57:53.558Z,4.13
2023-03-22T02:00:33.003Z,4.05
2023-03-22T02:03:26.239Z,4.85
2023-03-22T02:05:54.799Z,3.72
2023-03-22T02:08:25.626Z,4.68
2023-03-22T02:11:13.004Z,5.07
2023-03-22T02:13:48.268Z,4.25
2023-03-22T02:16:52.243Z,4.25
2023-03-22T02:19:42.663Z,5.65
2023-03-22T02:22:30.996Z,4.57
2023-03-22T02:25:15.786Z,4.47
2023-03-22T02:28:11.287Z,5.07
2023-03-22T02:31:15.008Z,5.50
2023-03-22T02:34:07.940Z,5.82
2023-03-22T02:37:02.074Z,6.18
2023-03-22T02:39:45.387Z,9.25
2023-03-22T02:42:22.317Z,6.53
2023-03-22T02:44:59.456Z,7.40
2023-03-22T02:47:42.506Z,7.75
2023-03-22T02:50:13.334Z,8.75
2023-03-22T02:52:54.260Z,8.85
2023-03-22T02:55:32.237Z,7.72
2023-03-22T02:58:12.583Z,7.75
2023-03-22T03:00:42.415Z,7.75
2023-03-22T03:03:18.627Z,7.93
2023-03-22T03:05:53.204Z,6.85
2023-03-22T03:08:24.214Z,6.68
2023-03-22T03:10:54.037Z,6.60
2023-03-22T03:13:54.479Z,5.88
2023-03-22T03:16:40.673Z,7.95
2023-03-22T03:23:33.662Z,4.90
2023-03-22T03:27:04.363Z,3.85
2023-03-22T03:30:15.245Z,3.67
2023-03-22T03:33:54.854Z,3.03
2023-03-22T03:36:38.544Z,3.90
2023-03-22T03:39:12.300Z,3.90
2023-03-22T03:41:43.301Z,5.35
2023-03-22T03:44:13.227Z,4.35
2023-03-22T03:46:42.383Z,5.95
2023-03-22T03:49:13.209Z,4.28
2023-03-22T03:51:55.239Z,3.92
2023-03-22T03:54:29.020Z,4.07
2023-03-22T03:57:04.078Z,4.50
2023-03-22T03:59:32.771Z,5.57
2023-03-22T04:02:06.171Z,4.93
2023-03-22T04:04:35.909Z,6.10
2023-03-22T04:07:06.464Z,6.97
2023-03-22T04:10:04.409Z,5.13
2023-03-22T04:13:40.875Z,3.63
2023-03-22T04:16:20.249Z,6.47
2023-03-22T04:21:56.339Z,4.95
2023-03-22T04:24:41.802Z,5.15
2023-03-22T04:27:31.866Z,4.72
2023-03-22T04:30:26.130Z,4.43
2023-03-22T04:33:43.528Z,4.53
2023-03-22T04:39:56.937Z,6.60
2023-03-22T04:43:07.101Z,4.32
2023-03-22T04:46:25.506Z,6.55
2023-03-22T04:49:14.301Z,5.75
2023-03-22T04:56:36.844Z,4.68
2023-03-22T04:59:36.981Z,5.57
2023-03-22T05:02:18.337Z,5.75
2023-03-22T05:05:31.378Z,7.90
2023-03-22T05:08:52.267Z,7.88
2023-03-22T05:11:37.635Z,5.88
2023-03-22T05:15:27.242Z,6.95
2023-03-22T05:21:21.781Z,5.13
2023-03-22T05:24:43.177Z,6.18
2023-03-22T05:28:01.018Z,11.18
2023-03-22T05:31:27.316Z,6.10
2023-03-22T05:34:41.715Z,7.20
2023-03-22T05:37:46.501Z,8.98
2023-03-22T05:40:33.891Z,6.95
2023-03-22T05:43:25.300Z,6.53
2023-03-22T05:46:24.323Z,8.32
2023-03-22T05:49:34.832Z,6.93
2023-03-22T05:52:21.457Z,9.32
2023-03-22T05:55:25.972Z,10.90
2023-03-22T05:57:59.371Z,8.68
2023-03-22T06:00:32.355Z,9.05
2023-03-22T06:03:19.146Z,9.13
2023-03-22T06:05:55.306Z,8.23
2023-03-22T06:08:35.370Z,11.55
2023-03-22T06:11:03.834Z,12.45
2023-03-22T06:13:32.394Z,11.75
2023-03-22T06:16:05.208Z,10.68
2023-03-22T06:18:33.783Z,14.23
2023-03-22T06:21:09.701Z,14.32
2023-03-22T06:23:39.074Z,10.98
2023-03-22T06:26:09.814Z,15.93
2023-03-22T06:28:38.602Z,11.48
2023-03-22T06:31:09.242Z,13.23
2023-03-22T06:34:09.707Z,15.63
2023-03-22T06:36:42.629Z,12.50
2023-03-22T06:39:33.810Z,10.38
2023-03-22T06:42:02.124Z,11.48
2023-03-22T06:44:30.525Z,10.10
2023-03-22T06:50:13.186Z,15.35
2023-03-22T06:53:01.030Z,14.38
2023-03-22T06:55:33.476Z,10.77
2023-03-22T06:58:06.970Z,8.65
2023-03-22T07:00:35.475Z,10.73
2023-03-22T07:03:03.715Z,6.20
2023-03-22T07:05:40.379Z,10.85
2023-03-22T07:08:08.630Z,11.52
2023-03-22T07:10:42.768Z,13.55
2023-03-22T07:13:10.818Z,8.45
2023-03-22T07:15:39.686Z,22.67
2023-03-22T07:18:18.700Z,14.00
2023-03-22T07:20:46.948Z,11.30
2023-03-22T07:23:15.807Z,16.52
2023-03-22T07:25:50.195Z,13.88
2023-03-22T07:28:26.963Z,12.07
2023-03-22T07:31:05.621Z,19.65
2023-03-22T07:33:52.532Z,13.07
2023-03-22T07:36:24.113Z,11.05
2023-03-22T07:38:53.072Z,17.92
2023-03-22T07:41:31.016Z,17.98
2023-03-22T07:44:18.525Z,14.23
2023-03-22T07:47:06.598Z,16.30
2023-03-22T07:49:44.952Z,13.73
2023-03-22T07:52:22.716Z,13.45
2023-03-22T07:54:58.755Z,18.85
2023-03-22T07:57:32.144Z,18.83
2023-03-22T08:00:26.852Z,12.63
2023-03-22T08:03:17.338Z,15.38
2023-03-22T08:06:09.940Z,15.68
2023-03-22T08:08:47.278Z,12.65
2023-03-22T08:11:22.807Z,13.07
2023-03-22T08:13:59.252Z,13.07
2023-03-22T08:16:37.743Z,18.98
2023-03-22T08:19:07.089Z,16.27
2023-03-22T08:22:09.169Z,22.55
2023-03-22T08:25:08.715Z,11.75
2023-03-22T08:27:40.706Z,12.18
2023-03-22T08:30:20.960Z,14.98
2023-03-22T08:32:57.555Z,14.43
2023-03-22T08:35:30.052Z,19.67
2023-03-22T08:37:59.976Z,13.02
2023-03-22T08:40:41.373Z,10.85
2023-03-22T08:43:09.505Z,14.35
2023-03-22T08:45:42.690Z,16.13
2023-03-22T08:48:16.785Z,14.90
2023-03-22T08:51:34.024Z,12.85
2023-03-22T08:54:59.567Z,12.73
2023-03-22T08:58:14.473Z,20.92
2023-03-22T09:01:24.517Z,16.60
2023-03-22T09:04:00.781Z,12.73
2023-03-22T09:06:31.471Z,13.50
2023-03-22T09:09:00.457Z,13.98
2023-03-22T09:11:29.369Z,9.20
2023-03-22T09:13:58.389Z,12.60
2023-03-22T09:16:26.381Z,13.43
2023-03-22T09:18:56.555Z,12.05
2023-03-22T09:21:24.588Z,13.43
2023-03-22T09:24:11.185Z,12.82
2023-03-22T09:26:47.143Z,15.60
2023-03-22T09:29:20.007Z,12.77
2023-03-22T09:31:53.064Z,14.35
2023-03-22T09:34:25.217Z,15.80
2023-03-22T09:36:53.443Z,12.98
2023-03-22T09:39:26.186Z,11.90
2023-03-22T09:42:02.092Z,10.18
2023-03-22T09:44:51.427Z,12.85
2023-03-22T09:47:44.423Z,10.43
2023-03-22T09:50:21.216Z,16.83
2023-03-22T09:52:50.002Z,17.85
2023-03-22T09:55:44.286Z,17.15
2023-03-22T09:58:22.130Z,9.85
2023-03-22T10:01:19.617Z,9.95
2023-03-22T10:04:00.564Z,11.82
2023-03-22T10:06:31.369Z,10.27
2023-03-22T10:09:11.930Z,13.18
2023-03-22T10:11:55.081Z,11.40
2023-03-22T10:14:42.884Z,7.65
2023-03-22T10:17:25.779Z,9.85
2023-03-22T10:20:10.363Z,8.65
2023-03-22T10:22:42.362Z,10.32
2023-03-22T10:25:17.791Z,12.38
2023-03-22T10:27:50.085Z,7.88
2023-03-22T10:30:24.974Z,11.95
2023-03-22T10:33:20.741Z,16.13
2023-03-22T10:35:49.896Z,10.48
2023-03-22T10:38:29.506Z,10.60
2023-03-22T10:40:59.923Z,9.73
2023-03-22T10:43:35.232Z,7.13
2023-03-22T10:46:15.452Z,10.85
2023-03-22T10:48:46.445Z,9.63
2023-03-22T10:51:33.424Z,14.07
2023-03-22T10:54:03.648Z,10.02
2023-03-22T10:56:32.277Z,9.80
2023-03-22T10:59:00.767Z,12.73
2023-03-22T11:01:37.128Z,15.73
2023-03-22T11:04:10.822Z,7.72
2023-03-22T11:06:54.592Z,11.63
2023-03-22T11:09:25.017Z,10.27
2023-03-22T11:11:58.996Z,7.70
2023-03-22T11:14:48.008Z,7.85
2023-03-22T11:17:23.005Z,8.43
2023-03-22T11:19:59.077Z,10.27
2023-03-22T11:22:46.336Z,11.15
2023-03-22T11:25:20.849Z,10.57
2023-03-22T11:27:56.452Z,11.18
2023-03-22T11:33:15.120Z,9.93
2023-03-22T11:35:47.593Z,11.18
2023-03-22T11:38:25.933Z,12.40
2023-03-22T11:41:01.809Z,11.30
2023-03-22T11:43:44.419Z,13.32
2023-03-22T11:46:13.508Z,24.88
2023-03-22T11:48:42.723Z,11.77
2023-03-22T11:51:14.465Z,10.50
2023-03-22T11:53:47.386Z,12.35
2023-03-22T11:56:26.369Z,10.35
2023-03-22T11:58:59.783Z,7.55
2023-03-22T12:01:46.203Z,7.93
2023-03-22T12:04:20.542Z,12.27
2023-03-22T12:06:54.167Z,10.55
2023-03-22T12:09:43.654Z,7.72
2023-03-22T12:12:30.843Z,9.30
2023-03-22T12:15:08.058Z,9.07
2023-03-22T12:17:42.898Z,9.73
2023-03-22T12:20:19.945Z,12.05
2023-03-22T12:22:53.634Z,8.48
2023-03-22T12:25:27.326Z,13.23
2023-03-22T12:27:59.911Z,10.73
2023-03-22T12:30:31.997Z,8.52
2023-03-22T12:33:26.244Z,9.70
2023-03-22T12:36:01.007Z,7.72
2023-03-22T12:38:43.378Z,12.57
2023-03-22T12:41:15.837Z,11.02
2023-03-22T12:44:10.000Z,12.32
2023-03-22T12:46:53.010Z,11.68
2023-03-22T12:49:32.806Z,9.40
2023-03-22T12:52:19.703Z,12.02
2023-03-22T12:54:50.706Z,17.38
2023-03-22T12:57:19.597Z,13.30
2023-03-22T12:59:52.494Z,11.10
2023-03-22T13:02:31.445Z,11.70
2023-03-22T13:05:03.236Z,13.23
2023-03-22T13:07:48.025Z,11.88
2023-03-22T13:10:32.059Z,10.35
2023-03-22T13:13:08.965Z,10.95
2023-03-22T13:15:42.714Z,12.13
2023-03-22T13:18:36.556Z,9.77
2023-03-22T13:21:24.567Z,11.40
2023-03-22T13:24:15.534Z,10.95
2023-03-22T13:26:51.855Z,11.45
2023-03-22T13:29:26.089Z,12.32
2023-03-22T13:32:07.343Z,12.82
2023-03-22T13:34:38.603Z,14.82
2023-03-22T13:37:46.268Z,10.90
2023-03-22T13:40:37.003Z,13.07
2023-03-22T13:43:29.072Z,11.27
2023-03-22T13:46:18.088Z,12.27
2023-03-22T13:48:52.884Z,7.97
2023-03-22T13:51:25.651Z,9.93
2023-03-22T13:54:24.582Z,11.20
2023-03-22T13:57:01.086Z,8.57
2023-03-22T13:59:31.320Z,8.60
2023-03-22T14:02:08.638Z,7.57
2023-03-22T14:04:45.163Z,12.02
2023-03-22T14:10:04.056Z,10.77
2023-03-22T14:13:04.418Z,12.73
2023-03-22T14:15:41.865Z,12.88
2023-03-22T14:18:27.410Z,7.93
2023-03-22T14:21:09.636Z,9.05
